createdAt,value
2019-04-14T00:00:03.553Z,63.81
2019-04-14T00:02:36.539Z,63.95
2019-04-14T00:05:08.372Z,63.97
2019-04-14T00:07:36.706Z,64.00
2019-04-14T00:10:09.352Z,64.15
2019-04-14T00:12:38.434Z,64.17
2019-04-14T00:15:21.127Z,64.29
2019-04-14T00:17:39.177Z,64.40
2019-04-14T00:20:07.436Z,64.41
2019-04-14T00:22:35.728Z,64.58
2019-04-14T00:25:06.457Z,64.55
2019-04-14T00:27:35.159Z,64.64
2019-04-14T00:30:06.187Z,64.77
2019-04-14T00:32:36.039Z,64.80
2019-04-14T00:35:06.553Z,64.89
2019-04-14T00:37:36.444Z,65.05
2019-04-14T00:40:08.300Z,65.11
2019-04-14T00:42:38.764Z,65.22
2019-04-14T00:45:09.217Z,65.33
2019-04-14T00:47:51.798Z,65.40
2019-04-14T00:50:10.547Z,65.58
2019-04-14T00:52:39.449Z,65.77
2019-04-14T00:55:07.736Z,65.79
2019-04-14T00:57:36.060Z,65.94
2019-04-14T01:00:05.998Z,66.06
2019-04-14T01:02:34.378Z,66.17
2019-04-14T01:05:02.629Z,66.24
2019-04-14T01:07:30.794Z,66.43
2019-04-14T01:09:59.686Z,66.60
2019-04-14T01:12:27.934Z,66.66
2019-04-14T01:14:56.484Z,66.86
2019-04-14T01:17:24.689Z,67.04
2019-04-14T01:19:52.943Z,67.12
2019-04-14T01:22:21.169Z,67.31
2019-04-14T01:24:49.406Z,67.43
2019-04-14T01:27:18.844Z,67.61
2019-04-14T01:29:47.393Z,68.07
2019-04-14T01:32:15.774Z,68.11
2019-04-14T01:34:43.992Z,68.23
2019-04-14T01:37:12.230Z,68.34
2019-04-14T01:39:41.459Z,68.45
2019-04-14T01:42:09.779Z,68.58
2019-04-14T01:44:37.989Z,68.83
2019-04-14T01:47:07.298Z,68.94
2019-04-14T01:49:37.626Z,69.13
2019-04-14T01:52:08.188Z,69.22
2019-04-14T01:54:47.393Z,69.50
2019-04-14T01:57:32.875Z,69.38
2019-04-14T02:00:03.346Z,69.55
2019-04-14T02:02:31.572Z,69.80
2019-04-14T02:05:00.014Z,69.88
2019-04-14T02:07:28.234Z,70.05
2019-04-14T02:09:57.544Z,70.09
2019-04-14T02:12:26.156Z,70.12
2019-04-14T02:14:54.539Z,70.26
2019-04-14T02:17:24.212Z,70.37
2019-04-14T02:19:52.512Z,70.49
2019-04-14T02:22:20.696Z,70.46
2019-04-14T02:24:50.354Z,70.61
2019-04-14T02:27:18.970Z,70.67
2019-04-14T02:29:47.399Z,70.88
2019-04-14T02:32:45.247Z,71.15
2019-04-14T02:35:16.623Z,71.20
2019-04-14T02:37:44.764Z,71.24
2019-04-14T02:42:40.216Z,71.54
2019-04-14T02:45:24.099Z,71.92
2019-04-14T02:47:53.803Z,71.68
2019-04-14T02:50:14.239Z,71.65
2019-04-14T02:52:46.545Z,71.75
2019-04-14T02:55:08.727Z,71.78
2019-04-14T03:00:18.893Z,71.59
2019-04-14T03:05:09.509Z,71.37
2019-04-14T03:07:45.819Z,71.50
2019-04-14T03:10:12.565Z,71.28
2019-04-14T03:12:46.447Z,71.32
2019-04-14T03:15:13.036Z,71.30
2019-04-14T03:17:47.230Z,71.27
2019-04-14T03:23:00.764Z,71.41
2019-04-14T03:25:22.521Z,71.36
2019-04-14T03:28:19.481Z,71.31
2019-04-14T03:36:05.760Z,71.35
2019-04-14T03:38:05.068Z,71.27
2019-04-14T03:43:09.996Z,71.32
2019-04-14T03:45:46.809Z,71.23
2019-04-14T03:50:37.524Z,71.20
2019-04-14T03:55:37.270Z,71.24
2019-04-14T03:58:00.636Z,71.21
2019-04-14T04:00:29.194Z,71.20
2019-04-14T04:02:57.657Z,71.19
2019-04-14T04:05:26.041Z,71.16
2019-04-14T04:07:54.582Z,71.15
2019-04-14T04:10:22.823Z,71.19
2019-04-14T04:12:51.167Z,71.36
2019-04-14T04:15:19.452Z,71.30
2019-04-14T04:17:49.500Z,71.35
2019-04-14T04:20:19.665Z,71.45
2019-04-14T04:22:58.710Z,71.45
2019-04-14T04:25:36.369Z,71.51
2019-04-14T04:28:16.501Z,71.55
2019-04-14T04:30:49.406Z,71.58
2019-04-14T04:33:35.847Z,71.58
2019-04-14T04:36:05.702Z,71.60
2019-04-14T04:38:42.034Z,71.65
2019-04-14T04:41:10.250Z,71.64
2019-04-14T04:43:38.802Z,71.65
2019-04-14T04:46:07.090Z,71.58
2019-04-14T04:48:35.324Z,71.53
2019-04-14T04:51:05.008Z,71.58
2019-04-14T04:53:33.262Z,71.57
2019-04-14T04:56:01.578Z,71.49
2019-04-14T04:58:30.527Z,71.47
2019-04-14T05:00:59.588Z,71.46
2019-04-14T05:03:29.614Z,71.43
2019-04-14T05:06:30.971Z,71.43
2019-04-14T05:09:03.644Z,71.36
2019-04-14T05:11:36.268Z,71.36
2019-04-14T05:14:06.551Z,71.31
2019-04-14T05:16:34.782Z,71.35
2019-04-14T05:19:16.203Z,71.27
2019-04-14T05:21:34.299Z,71.30
2019-04-14T05:24:02.800Z,71.16
2019-04-14T05:26:31.036Z,71.12
2019-04-14T05:28:59.633Z,71.02
2019-04-14T05:31:29.438Z,70.85
2019-04-14T05:33:58.257Z,70.79
2019-04-14T05:36:26.536Z,70.52
2019-04-14T05:38:56.007Z,70.38
2019-04-14T05:41:24.469Z,70.22
2019-04-14T05:43:57.072Z,69.90
2019-04-14T05:46:23.057Z,69.63
2019-04-14T05:48:53.509Z,69.32
2019-04-14T05:51:23.324Z,69.18
2019-04-14T05:53:52.383Z,69.05
2019-04-14T05:56:20.739Z,68.95
2019-04-14T05:58:49.328Z,68.74
2019-04-14T06:01:18.136Z,68.66
2019-04-14T06:03:47.508Z,68.30
2019-04-14T06:06:15.810Z,68.05
2019-04-14T06:08:44.019Z,67.89
2019-04-14T06:11:12.219Z,67.69
2019-04-14T06:13:40.449Z,67.67
2019-04-14T06:16:08.972Z,67.55
2019-04-14T06:18:37.498Z,67.38
2019-04-14T06:21:05.706Z,67.29
2019-04-14T06:23:33.942Z,67.28
2019-04-14T06:26:02.167Z,67.23
2019-04-14T06:28:30.402Z,67.24
2019-04-14T06:31:02.704Z,67.13
2019-04-14T06:33:41.281Z,67.00
2019-04-14T06:36:11.121Z,66.99
2019-04-14T06:38:40.977Z,66.95
2019-04-14T06:41:10.842Z,66.81
2019-04-14T06:43:48.283Z,66.82
2019-04-14T06:46:08.995Z,66.74
2019-04-14T06:48:37.210Z,66.64
2019-04-14T06:51:05.428Z,66.52
2019-04-14T06:53:33.661Z,66.27
2019-04-14T06:56:01.957Z,65.93
2019-04-14T06:58:30.453Z,65.50
2019-04-14T07:00:59.663Z,65.06
2019-04-14T07:03:28.127Z,64.89
2019-04-14T07:05:56.338Z,64.58
2019-04-14T07:08:24.548Z,64.54
2019-04-14T07:10:52.753Z,64.30
2019-04-14T07:13:20.958Z,63.94
2019-04-14T07:15:49.157Z,63.82
2019-04-14T07:18:17.377Z,63.57
2019-04-14T07:20:45.854Z,63.38
2019-04-14T07:23:14.155Z,62.44
2019-04-14T07:25:42.404Z,62.09
2019-04-14T07:28:10.596Z,62.20
2019-04-14T07:30:43.491Z,62.16
2019-04-14T07:33:13.327Z,61.65
2019-04-14T07:35:46.172Z,60.67
2019-04-14T07:38:21.991Z,59.87
2019-04-14T07:41:04.465Z,59.45
2019-04-14T07:43:50.420Z,58.46
2019-04-14T07:46:20.530Z,57.93
2019-04-14T07:48:50.375Z,57.92
2019-04-14T07:51:20.254Z,57.33
2019-04-14T07:53:59.245Z,57.27
2019-04-14T07:56:29.103Z,56.79
2019-04-14T07:59:04.763Z,56.18
2019-04-14T08:01:37.962Z,55.77
2019-04-14T08:04:07.800Z,55.88
2019-04-14T08:06:38.386Z,55.69
2019-04-14T08:09:07.417Z,55.33
2019-04-14T08:11:35.784Z,55.69
2019-04-14T08:14:04.279Z,55.23
2019-04-14T08:16:32.482Z,54.74
2019-04-14T08:19:00.994Z,54.62
2019-04-14T08:21:29.216Z,54.63
2019-04-14T08:23:57.749Z,54.43
2019-04-14T08:26:26.257Z,54.61
2019-04-14T08:28:54.496Z,55.15
2019-04-14T08:31:23.507Z,55.04
2019-04-14T08:33:51.695Z,54.34
2019-04-14T08:36:20.180Z,53.85
2019-04-14T08:38:48.794Z,52.98
2019-04-14T08:41:16.987Z,53.10
2019-04-14T08:43:46.826Z,52.89
2019-04-14T08:46:19.401Z,53.74
2019-04-14T08:48:52.113Z,53.74
2019-04-14T08:51:24.508Z,53.96
2019-04-14T08:53:59.848Z,53.86
2019-04-14T08:56:44.695Z,54.12
2019-04-14T08:59:23.873Z,54.48
2019-04-14T09:01:56.506Z,54.97
2019-04-14T09:04:42.621Z,55.21
2019-04-14T09:07:12.471Z,55.10
2019-04-14T09:09:57.392Z,55.69
2019-04-14T09:12:27.276Z,56.01
2019-04-14T09:14:57.296Z,56.21
2019-04-14T09:17:26.702Z,56.25
2019-04-14T09:19:54.903Z,56.18
2019-04-14T09:22:23.115Z,56.07
2019-04-14T09:24:51.330Z,56.27
2019-04-14T09:27:19.551Z,56.51
2019-04-14T09:29:48.074Z,56.58
2019-04-14T09:32:16.575Z,56.42
2019-04-14T09:34:44.779Z,56.37
2019-04-14T09:37:13.158Z,56.16
2019-04-14T09:39:41.387Z,56.15
2019-04-14T09:42:09.594Z,56.34
2019-04-14T09:44:37.817Z,56.25
2019-04-14T09:47:06.305Z,56.18
2019-04-14T09:49:34.690Z,56.39
2019-04-14T09:52:03.188Z,56.05
2019-04-14T09:54:31.657Z,56.15
2019-04-14T09:56:59.879Z,56.70
2019-04-14T09:59:28.090Z,57.22
2019-04-14T10:01:56.401Z,57.51
2019-04-14T10:04:24.613Z,57.66
2019-04-14T10:06:52.829Z,57.51
2019-04-14T10:09:21.043Z,57.20
2019-04-14T10:11:53.508Z,57.00
2019-04-14T10:14:19.588Z,57.23
2019-04-14T10:16:47.796Z,57.50
2019-04-14T10:19:16.085Z,57.73
2019-04-14T10:21:44.393Z,57.70
2019-04-14T10:24:12.737Z,57.29
2019-04-14T10:26:41.257Z,57.14
2019-04-14T10:29:10.360Z,57.06
2019-04-14T10:31:38.576Z,57.16
2019-04-14T10:34:09.759Z,57.99
2019-04-14T10:36:36.972Z,58.81
2019-04-14T10:39:06.807Z,59.46
2019-04-14T10:41:35.034Z,60.41
2019-04-14T10:44:03.298Z,60.33
2019-04-14T10:46:31.954Z,60.60
2019-04-14T10:49:00.207Z,60.76
2019-04-14T10:51:30.214Z,61.04
2019-04-14T10:53:58.676Z,61.47
2019-04-14T10:56:27.758Z,61.66
2019-04-14T10:58:55.966Z,61.56
2019-04-14T11:01:24.193Z,61.26
2019-04-14T11:03:52.596Z,60.56
2019-04-14T11:06:38.643Z,59.86
2019-04-14T11:09:09.121Z,59.86
2019-04-14T11:11:37.320Z,60.35
2019-04-14T11:14:05.922Z,60.50
2019-04-14T11:16:34.160Z,61.04
2019-04-14T11:19:02.385Z,61.60
2019-04-14T11:21:41.999Z,61.50
2019-04-14T11:24:00.912Z,61.17
2019-04-14T11:26:29.171Z,61.10
2019-04-14T11:28:57.436Z,61.02
2019-04-14T11:31:45.954Z,61.48
2019-04-14T11:34:15.806Z,61.98
2019-04-14T11:37:03.822Z,62.06
2019-04-14T11:39:32.461Z,62.10
2019-04-14T11:42:00.846Z,62.44
2019-04-14T11:44:29.337Z,62.61
2019-04-14T11:46:57.558Z,62.66
2019-04-14T11:49:26.023Z,62.73
2019-04-14T11:51:55.853Z,62.49
2019-04-14T11:54:24.070Z,61.91
2019-04-14T11:56:52.591Z,61.62
2019-04-14T11:59:22.779Z,61.87
2019-04-14T12:01:58.387Z,62.07
2019-04-14T12:04:28.230Z,62.20
2019-04-14T12:07:10.547Z,62.37
2019-04-14T12:09:40.703Z,62.63
2019-04-14T12:12:10.173Z,62.60
2019-04-14T12:14:38.787Z,63.10
2019-04-14T12:17:07.938Z,63.57
2019-04-14T12:19:36.179Z,64.10
2019-04-14T12:22:08.371Z,64.53
2019-04-14T12:24:34.511Z,64.87
2019-04-14T12:27:03.015Z,65.09
2019-04-14T12:29:32.465Z,65.68
2019-04-14T12:32:01.770Z,66.29
2019-04-14T12:34:30.223Z,66.74
2019-04-14T12:36:58.842Z,66.96
2019-04-14T12:39:27.016Z,66.97
2019-04-14T12:42:05.490Z,67.02
2019-04-14T12:44:47.759Z,66.81
2019-04-14T12:47:17.613Z,66.86
2019-04-14T12:49:53.155Z,66.33
2019-04-14T12:52:23.112Z,66.37
2019-04-14T12:54:51.320Z,66.43
2019-04-14T12:57:27.876Z,66.44
2019-04-14T12:59:56.086Z,66.55
2019-04-14T13:02:28.342Z,67.06
2019-04-14T13:04:56.958Z,67.31
2019-04-14T13:07:25.498Z,67.52
2019-04-14T13:09:53.707Z,67.76
2019-04-14T13:12:21.939Z,67.82
2019-04-14T13:14:50.542Z,67.92
2019-04-14T13:17:19.139Z,67.68
2019-04-14T13:19:47.385Z,67.58
2019-04-14T13:22:15.590Z,67.36
2019-04-14T13:24:43.825Z,67.12
2019-04-14T13:27:12.177Z,67.05
2019-04-14T13:29:41.270Z,66.77
2019-04-14T13:32:10.719Z,66.81
2019-04-14T13:34:39.191Z,66.74
2019-04-14T13:37:07.508Z,66.57
2019-04-14T13:39:35.790Z,66.36
2019-04-14T13:42:04.334Z,66.52
2019-04-14T13:44:32.855Z,66.61
2019-04-14T13:47:01.314Z,66.47
2019-04-14T13:49:29.499Z,66.39
2019-04-14T13:51:57.711Z,66.82
2019-04-14T13:54:26.222Z,66.76
2019-04-14T13:56:54.542Z,66.25
2019-04-14T13:59:22.779Z,66.01
2019-04-14T14:01:50.993Z,66.36
2019-04-14T14:04:19.191Z,66.11
2019-04-14T14:06:47.705Z,65.80
2019-04-14T14:09:15.957Z,65.73
2019-04-14T14:11:48.854Z,65.68
2019-04-14T14:14:18.638Z,65.69
2019-04-14T14:17:06.926Z,65.37
2019-04-14T14:19:38.078Z,65.46
2019-04-14T14:22:11.030Z,65.89
2019-04-14T14:24:43.610Z,66.06
2019-04-14T14:27:12.128Z,66.32
2019-04-14T14:29:40.327Z,66.43
2019-04-14T14:32:10.516Z,66.51
2019-04-14T14:34:38.987Z,66.52
2019-04-14T14:37:07.579Z,66.54
2019-04-14T14:39:36.404Z,66.71
2019-04-14T14:42:04.637Z,66.52
2019-04-14T14:44:40.008Z,66.55
2019-04-14T14:47:19.151Z,66.57
2019-04-14T14:50:05.210Z,66.56
2019-04-14T14:52:34.900Z,66.51
2019-04-14T14:55:03.116Z,66.44
2019-04-14T14:57:31.342Z,66.40
2019-04-14T14:59:59.874Z,66.52
2019-04-14T15:02:28.086Z,66.60
2019-04-14T15:04:56.317Z,66.46
2019-04-14T15:07:24.536Z,66.37
2019-04-14T15:09:53.648Z,66.32
2019-04-14T15:12:21.937Z,66.12
2019-04-14T15:14:50.167Z,66.00
2019-04-14T15:17:18.763Z,65.95
2019-04-14T15:19:47.288Z,65.92
2019-04-14T15:22:15.500Z,65.83
2019-04-14T15:24:43.725Z,65.73
2019-04-14T15:27:11.952Z,65.59
2019-04-14T15:29:40.184Z,65.43
2019-04-14T15:32:08.364Z,65.51
2019-04-14T15:34:36.612Z,65.42
2019-04-14T15:37:04.832Z,65.58
2019-04-14T15:39:33.060Z,65.72
2019-04-14T15:42:01.544Z,66.00
2019-04-14T15:44:29.746Z,66.52
2019-04-14T15:46:57.988Z,67.04
2019-04-14T15:49:26.515Z,67.18
2019-04-14T15:51:55.115Z,67.34
2019-04-14T15:54:25.591Z,67.38
2019-04-14T15:56:55.948Z,67.51
2019-04-14T15:59:31.292Z,67.43
2019-04-14T16:02:01.498Z,67.36
2019-04-14T16:04:31.355Z,67.34
2019-04-14T16:07:10.657Z,67.32
2019-04-14T16:09:57.369Z,67.32
2019-04-14T16:12:39.457Z,67.27
2019-04-14T16:15:18.581Z,67.23
2019-04-14T16:17:51.497Z,67.04
2019-04-14T16:20:24.175Z,66.82
2019-04-14T16:22:52.373Z,66.71
2019-04-14T16:25:22.292Z,66.60
2019-04-14T16:27:52.468Z,66.00
2019-04-14T16:30:37.645Z,66.00
2019-04-14T16:33:07.515Z,66.02
2019-04-14T16:35:37.358Z,65.92
2019-04-14T16:38:05.557Z,65.92
2019-04-14T16:40:34.272Z,65.68
2019-04-14T16:43:02.846Z,65.47
2019-04-14T16:45:31.390Z,65.46
2019-04-14T16:47:59.684Z,65.38
2019-04-14T16:50:27.890Z,64.87
2019-04-14T16:52:57.748Z,64.94
2019-04-14T16:55:29.713Z,64.87
2019-04-14T16:58:16.152Z,64.85
2019-04-14T17:00:46.377Z,64.92
2019-04-14T17:03:15.030Z,64.82
2019-04-14T17:05:43.234Z,64.56
2019-04-14T17:08:11.994Z,64.32
2019-04-14T17:10:40.675Z,64.25
2019-04-14T17:13:09.362Z,64.16
2019-04-14T17:15:55.290Z,63.98
2019-04-14T17:18:31.100Z,64.10
2019-04-14T17:21:04.566Z,63.91
2019-04-14T17:23:40.034Z,63.96
2019-04-14T17:26:12.555Z,63.93
2019-04-14T17:28:57.123Z,64.05
2019-04-14T17:31:26.973Z,64.17
2019-04-14T17:33:56.830Z,64.18
2019-04-14T17:36:30.532Z,64.21
2019-04-14T17:39:03.220Z,64.20
2019-04-14T17:41:33.142Z,64.20
2019-04-14T17:44:03.053Z,64.24
2019-04-14T17:46:49.310Z,64.41
2019-04-14T17:49:35.752Z,64.56
2019-04-14T17:52:21.911Z,64.58
2019-04-14T17:55:08.044Z,64.70
2019-04-14T17:57:43.426Z,64.86
2019-04-14T18:00:22.329Z,65.01
2019-04-14T18:02:54.961Z,65.24
2019-04-14T18:05:30.829Z,65.44
2019-04-14T18:08:00.690Z,65.62
2019-04-14T18:10:36.593Z,65.81
2019-04-14T18:13:06.476Z,65.89
2019-04-14T18:15:36.299Z,66.15
2019-04-14T18:18:08.950Z,66.39
2019-04-14T18:20:45.078Z,66.48
2019-04-14T18:23:13.654Z,66.62
2019-04-14T18:25:41.877Z,66.77
2019-04-14T18:28:18.174Z,66.87
2019-04-14T18:30:53.999Z,67.11
2019-04-14T18:33:30.198Z,67.12
2019-04-14T18:36:00.071Z,67.20
2019-04-14T18:38:39.038Z,67.16
2019-04-14T18:41:08.932Z,67.26
2019-04-14T18:43:41.530Z,67.41
2019-04-14T18:46:14.494Z,67.37
2019-04-14T18:48:47.243Z,67.46
2019-04-14T18:51:29.351Z,67.51
2019-04-14T18:53:59.206Z,67.56
2019-04-14T18:56:41.439Z,67.61
2019-04-14T18:59:27.477Z,67.65
2019-04-14T19:01:57.320Z,67.70
2019-04-14T19:04:25.536Z,67.65
2019-04-14T19:06:53.742Z,67.61
2019-04-14T19:09:21.950Z,67.64
2019-04-14T19:11:51.875Z,67.50
2019-04-14T19:14:21.823Z,67.48
2019-04-14T19:16:51.650Z,67.48
2019-04-14T19:19:21.497Z,67.44
2019-04-14T19:21:49.720Z,67.43
2019-04-14T19:24:18.349Z,67.22
2019-04-14T19:26:46.574Z,67.10
2019-04-14T19:29:14.805Z,67.01
2019-04-14T19:31:43.309Z,66.62
2019-04-14T19:34:12.669Z,66.48
2019-04-14T19:36:40.876Z,66.27
2019-04-14T19:39:11.422Z,65.87
2019-04-14T19:41:39.673Z,65.77
2019-04-14T19:44:07.865Z,65.70
2019-04-14T19:46:36.145Z,65.35
2019-04-14T19:49:04.700Z,64.90
2019-04-14T19:51:33.211Z,64.57
2019-04-14T19:54:01.378Z,64.45
2019-04-14T19:56:30.423Z,64.07
2019-04-14T19:58:58.651Z,64.06
2019-04-14T20:01:26.939Z,63.75
2019-04-14T20:03:55.188Z,63.44
2019-04-14T20:06:23.388Z,63.65
2019-04-14T20:08:51.674Z,63.73
2019-04-14T20:11:20.232Z,63.73
2019-04-14T20:13:48.456Z,63.83
2019-04-14T20:16:18.306Z,63.91
2019-04-14T20:18:48.225Z,64.02
2019-04-14T20:21:24.176Z,64.10
2019-04-14T20:23:56.723Z,64.09
2019-04-14T20:26:41.355Z,64.14
2019-04-14T20:29:27.718Z,64.16
2019-04-14T20:32:13.843Z,64.11
2019-04-14T20:34:42.156Z,63.98
2019-04-14T20:37:10.524Z,63.92
2019-04-14T20:39:38.959Z,63.67
2019-04-14T20:42:08.140Z,63.01
2019-04-14T20:44:36.735Z,62.54
2019-04-14T20:47:06.810Z,62.02
2019-04-14T20:49:35.005Z,61.99
2019-04-14T20:52:03.204Z,61.47
2019-04-14T20:54:31.427Z,61.19
2019-04-14T20:56:59.950Z,60.67
2019-04-14T20:59:28.291Z,60.70
2019-04-14T21:01:58.127Z,60.51
2019-04-14T21:04:44.937Z,60.42
2019-04-14T21:07:20.714Z,60.17
2019-04-14T21:09:53.281Z,60.30
2019-04-14T21:12:23.103Z,59.34
2019-04-14T21:14:56.373Z,58.99
2019-04-14T21:17:28.879Z,59.02
2019-04-14T21:20:07.876Z,58.69
2019-04-14T21:22:37.720Z,57.99
2019-04-14T21:25:24.337Z,57.37
2019-04-14T21:28:03.232Z,57.24
2019-04-14T21:30:48.278Z,56.72
2019-04-14T21:33:20.918Z,54.81
2019-04-14T21:35:51.104Z,54.94
2019-04-14T21:38:20.950Z,55.00
2019-04-14T21:40:50.852Z,54.90
2019-04-14T21:43:19.070Z,53.68
2019-04-14T21:45:47.323Z,52.92
2019-04-14T21:48:15.520Z,52.17
2019-04-14T21:50:43.729Z,52.29
2019-04-14T21:53:12.201Z,51.52
2019-04-14T21:55:40.410Z,51.27
2019-04-14T21:58:10.606Z,51.21
2019-04-14T22:01:01.688Z,50.91
2019-04-14T22:03:31.535Z,51.06
2019-04-14T22:06:01.639Z,51.03
2019-04-14T22:08:34.397Z,50.96
2019-04-14T22:11:04.532Z,50.22
2019-04-14T22:13:33.043Z,50.62
2019-04-14T22:16:01.897Z,50.81
2019-04-14T22:18:30.106Z,51.28
2019-04-14T22:20:58.308Z,51.05
2019-04-14T22:23:26.528Z,51.15
2019-04-14T22:25:54.752Z,50.94
2019-04-14T22:28:22.939Z,50.82
2019-04-14T22:30:51.180Z,51.07
2019-04-14T22:33:19.395Z,50.72
2019-04-14T22:35:47.597Z,50.83
2019-04-14T22:38:15.832Z,50.71
2019-04-14T22:40:44.351Z,50.74
2019-04-14T22:43:13.529Z,50.84
2019-04-14T22:45:41.765Z,50.81
2019-04-14T22:48:10.355Z,51.13
2019-04-14T22:50:38.656Z,51.25
2019-04-14T22:53:06.963Z,51.29
2019-04-14T22:55:35.185Z,51.50
2019-04-14T22:58:03.732Z,51.47
2019-04-14T23:00:42.515Z,51.41
2019-04-14T23:03:18.517Z,51.42
2019-04-14T23:05:49.114Z,51.35
2019-04-14T23:08:18.967Z,51.37
2019-04-14T23:11:03.544Z,51.59
2019-04-14T23:13:49.537Z,51.90
2019-04-14T23:16:19.479Z,52.16
2019-04-14T23:18:52.612Z,52.50
2019-04-14T23:21:28.201Z,52.93
2019-04-14T23:24:06.969Z,53.30
2019-04-14T23:26:35.166Z,53.50
2019-04-14T23:29:03.729Z,53.73
2019-04-14T23:31:32.418Z,54.01
2019-04-14T23:34:00.969Z,54.13
2019-04-14T23:36:29.189Z,53.95
2019-04-14T23:38:57.399Z,53.97
2019-04-14T23:41:25.622Z,53.89
2019-04-14T23:43:53.831Z,53.92
2019-04-14T23:46:22.119Z,53.93
2019-04-14T23:48:50.366Z,53.93
2019-04-14T23:51:20.444Z,53.99
2019-04-14T23:53:48.609Z,54.14
2019-04-14T23:56:16.827Z,54.21
2019-04-14T23:58:45.041Z,54.21
